sensor_id;sensor_type;location;lat;lon;timestamp;temperature;humidity
5172;DHT22;2605;49.770;9.868;2023-11-19T00:00:37;6.60;99.90
5172;DHT22;2605;49.770;9.868;2023-11-19T00:03:03;6.60;99.90
5172;DHT22;2605;49.770;9.868;2023-11-19T00:05:29;6.60;99.90
5172;DHT22;2605;49.770;9.868;2023-11-19T00:07:55;6.60;99.90
5172;DHT22;2605;49.770;9.868;2023-11-19T00:10:20;6.60;99.90
5172;DHT22;2605;49.770;9.868;2023-11-19T00:12:48;6.60;99.90
5172;DHT22;2605;49.770;9.868;2023-11-19T00:15:15;6.70;99.90
5172;DHT22;2605;49.770;9.868;2023-11-19T00:17:41;6.70;99.90
5172;DHT22;2605;49.770;9.868;2023-11-19T00:20:10;6.70;99.90
5172;DHT22;2605;49.770;9.868;2023-11-19T00:22:36;6.80;99.90
5172;DHT22;2605;49.770;9.868;2023-11-19T00:25:02;6.80;99.90
5172;DHT22;2605;49.770;9.868;2023-11-19T00:27:28;6.80;99.90
5172;DHT22;2605;49.770;9.868;2023-11-19T00:29:57;6.80;99.90
5172;DHT22;2605;49.770;9.868;2023-11-19T00:32:23;6.80;99.90
5172;DHT22;2605;49.770;9.868;2023-11-19T00:34:48;6.90;99.90
5172;DHT22;2605;49.770;9.868;2023-11-19T00:37:17;6.80;99.90
5172;DHT22;2605;49.770;9.868;2023-11-19T00:39:43;6.80;99.90
5172;DHT22;2605;49.770;9.868;2023-11-19T00:42:11;6.90;99.90
5172;DHT22;2605;49.770;9.868;2023-11-19T00:44:37;6.90;99.90
5172;DHT22;2605;49.770;9.868;2023-11-19T00:47:02;7.00;99.90
5172;DHT22;2605;49.770;9.868;2023-11-19T00:49:28;6.90;99.90
5172;DHT22;2605;49.770;9.868;2023-11-19T00:51:54;6.90;99.90
5172;DHT22;2605;49.770;9.868;2023-11-19T00:54:19;6.90;99.90
5172;DHT22;2605;49.770;9.868;2023-11-19T00:56:45;7.00;99.90
5172;DHT22;2605;49.770;9.868;2023-11-19T00:59:11;6.90;99.90
5172;DHT22;2605;49.770;9.868;2023-11-19T01:01:36;7.00;99.90
5172;DHT22;2605;49.770;9.868;2023-11-19T01:04:02;7.00;99.90
5172;DHT22;2605;49.770;9.868;2023-11-19T01:06:28;7.00;99.90
5172;DHT22;2605;49.770;9.868;2023-11-19T01:08:54;7.00;99.90
5172;DHT22;2605;49.770;9.868;2023-11-19T01:11:25;7.10;99.90
5172;DHT22;2605;49.770;9.868;2023-11-19T01:13:51;7.00;99.90
5172;DHT22;2605;49.770;9.868;2023-11-19T01:16:17;7.10;99.90
5172;DHT22;2605;49.770;9.868;2023-11-19T01:18:47;7.10;99.90
5172;DHT22;2605;49.770;9.868;2023-11-19T01:21:12;7.10;99.90
5172;DHT22;2605;49.770;9.868;2023-11-19T01:23:40;7.10;99.90
5172;DHT22;2605;49.770;9.868;2023-11-19T01:26:05;7.30;99.90
5172;DHT22;2605;49.770;9.868;2023-11-19T01:28:31;7.10;99.90
5172;DHT22;2605;49.770;9.868;2023-11-19T01:30:57;7.10;99.90
5172;DHT22;2605;49.770;9.868;2023-11-19T01:33:22;7.10;99.90
5172;DHT22;2605;49.770;9.868;2023-11-19T01:35:48;7.20;99.90
5172;DHT22;2605;49.770;9.868;2023-11-19T01:38:13;7.20;99.90
5172;DHT22;2605;49.770;9.868;2023-11-19T01:40:39;7.20;99.90
5172;DHT22;2605;49.770;9.868;2023-11-19T01:43:05;7.20;99.90
5172;DHT22;2605;49.770;9.868;2023-11-19T01:45:31;7.20;99.90
5172;DHT22;2605;49.770;9.868;2023-11-19T01:47:59;7.20;99.90
5172;DHT22;2605;49.770;9.868;2023-11-19T01:50:25;7.20;99.90
5172;DHT22;2605;49.770;9.868;2023-11-19T01:52:55;7.20;99.90
5172;DHT22;2605;49.770;9.868;2023-11-19T01:55:23;7.20;99.90
5172;DHT22;2605;49.770;9.868;2023-11-19T01:57:49;7.20;99.90
5172;DHT22;2605;49.770;9.868;2023-11-19T02:00:16;7.20;99.90
5172;DHT22;2605;49.770;9.868;2023-11-19T02:02:45;7.20;99.90
5172;DHT22;2605;49.770;9.868;2023-11-19T02:05:12;7.30;99.90
5172;DHT22;2605;49.770;9.868;2023-11-19T02:07:38;7.20;99.90
5172;DHT22;2605;49.770;9.868;2023-11-19T02:10:04;7.20;99.90
5172;DHT22;2605;49.770;9.868;2023-11-19T02:12:31;7.20;99.90
5172;DHT22;2605;49.770;9.868;2023-11-19T02:14:59;7.20;99.90
5172;DHT22;2605;49.770;9.868;2023-11-19T02:17:29;7.20;99.90
5172;DHT22;2605;49.770;9.868;2023-11-19T02:19:57;7.20;99.90
5172;DHT22;2605;49.770;9.868;2023-11-19T02:22:23;7.20;99.90
5172;DHT22;2605;49.770;9.868;2023-11-19T02:24:56;7.20;99.90
5172;DHT22;2605;49.770;9.868;2023-11-19T02:30:08;7.20;99.90
5172;DHT22;2605;49.770;9.868;2023-11-19T02:32:34;7.20;99.90
5172;DHT22;2605;49.770;9.868;2023-11-19T02:35:01;7.30;99.90
5172;DHT22;2605;49.770;9.868;2023-11-19T02:37:26;7.30;99.90
5172;DHT22;2605;49.770;9.868;2023-11-19T02:39:53;7.30;99.90
5172;DHT22;2605;49.770;9.868;2023-11-19T02:42:19;7.40;99.90
5172;DHT22;2605;49.770;9.868;2023-11-19T02:44:45;7.30;99.90
5172;DHT22;2605;49.770;9.868;2023-11-19T02:47:11;7.40;99.90
5172;DHT22;2605;49.770;9.868;2023-11-19T02:49:37;7.40;99.90
5172;DHT22;2605;49.770;9.868;2023-11-19T02:52:03;7.40;99.90
5172;DHT22;2605;49.770;9.868;2023-11-19T02:54:30;7.50;99.90
5172;DHT22;2605;49.770;9.868;2023-11-19T02:57:00;7.50;99.90
5172;DHT22;2605;49.770;9.868;2023-11-19T02:59:27;7.50;99.90
5172;DHT22;2605;49.770;9.868;2023-11-19T03:01:53;7.60;99.90
5172;DHT22;2605;49.770;9.868;2023-11-19T03:04:19;7.50;99.90
5172;DHT22;2605;49.770;9.868;2023-11-19T03:06:48;7.50;99.90
5172;DHT22;2605;49.770;9.868;2023-11-19T03:09:14;7.50;99.90
5172;DHT22;2605;49.770;9.868;2023-11-19T03:11:42;7.50;99.90
5172;DHT22;2605;49.770;9.868;2023-11-19T03:14:08;7.50;99.90
5172;DHT22;2605;49.770;9.868;2023-11-19T03:16:33;7.50;99.90
5172;DHT22;2605;49.770;9.868;2023-11-19T03:18:58;7.50;99.90
5172;DHT22;2605;49.770;9.868;2023-11-19T03:21:29;7.50;99.90
5172;DHT22;2605;49.770;9.868;2023-11-19T03:23:55;7.50;99.90
5172;DHT22;2605;49.770;9.868;2023-11-19T03:26:21;7.50;99.90
5172;DHT22;2605;49.770;9.868;2023-11-19T03:28:47;7.50;99.90
5172;DHT22;2605;49.770;9.868;2023-11-19T03:31:13;7.60;99.90
5172;DHT22;2605;49.770;9.868;2023-11-19T03:33:38;7.60;99.90
5172;DHT22;2605;49.770;9.868;2023-11-19T03:36:04;7.60;99.90
5172;DHT22;2605;49.770;9.868;2023-11-19T03:38:30;7.70;99.90
5172;DHT22;2605;49.770;9.868;2023-11-19T03:40:55;7.70;99.90
5172;DHT22;2605;49.770;9.868;2023-11-19T03:43:21;7.70;99.90
5172;DHT22;2605;49.770;9.868;2023-11-19T03:45:46;7.70;99.90
5172;DHT22;2605;49.770;9.868;2023-11-19T03:48:12;7.70;99.90
5172;DHT22;2605;49.770;9.868;2023-11-19T03:50:37;7.80;99.90
5172;DHT22;2605;49.770;9.868;2023-11-19T03:53:03;7.80;99.90
5172;DHT22;2605;49.770;9.868;2023-11-19T03:55:29;7.80;99.90
5172;DHT22;2605;49.770;9.868;2023-11-19T03:57:55;7.80;99.90
5172;DHT22;2605;49.770;9.868;2023-11-19T04:00:20;8.00;99.90
5172;DHT22;2605;49.770;9.868;2023-11-19T04:02:46;7.90;99.90
5172;DHT22;2605;49.770;9.868;2023-11-19T04:05:12;8.00;99.90
5172;DHT22;2605;49.770;9.868;2023-11-19T04:07:38;8.10;99.90
5172;DHT22;2605;49.770;9.868;2023-11-19T04:10:03;8.10;99.90
5172;DHT22;2605;49.770;9.868;2023-11-19T04:12:29;8.20;99.90
5172;DHT22;2605;49.770;9.868;2023-11-19T04:14:55;8.20;99.90
5172;DHT22;2605;49.770;9.868;2023-11-19T04:17:21;8.20;99.90
5172;DHT22;2605;49.770;9.868;2023-11-19T04:19:48;8.30;99.90
5172;DHT22;2605;49.770;9.868;2023-11-19T04:22:14;8.30;99.90
5172;DHT22;2605;49.770;9.868;2023-11-19T04:24:39;8.30;99.90
5172;DHT22;2605;49.770;9.868;2023-11-19T04:27:06;8.30;99.90
5172;DHT22;2605;49.770;9.868;2023-11-19T04:29:31;8.30;99.90
5172;DHT22;2605;49.770;9.868;2023-11-19T04:31:57;8.40;99.90
5172;DHT22;2605;49.770;9.868;2023-11-19T04:34:26;8.40;99.90
5172;DHT22;2605;49.770;9.868;2023-11-19T04:36:52;8.50;99.90
5172;DHT22;2605;49.770;9.868;2023-11-19T04:39:20;8.50;99.90
5172;DHT22;2605;49.770;9.868;2023-11-19T04:41:49;8.50;99.90
5172;DHT22;2605;49.770;9.868;2023-11-19T04:44:16;8.60;99.90
5172;DHT22;2605;49.770;9.868;2023-11-19T04:46:42;8.60;99.90
5172;DHT22;2605;49.770;9.868;2023-11-19T04:49:09;8.60;99.90
5172;DHT22;2605;49.770;9.868;2023-11-19T04:51:44;8.60;99.90
5172;DHT22;2605;49.770;9.868;2023-11-19T04:54:12;8.70;99.90
5172;DHT22;2605;49.770;9.868;2023-11-19T04:56:37;8.70;99.90
5172;DHT22;2605;49.770;9.868;2023-11-19T04:59:04;8.70;99.90
5172;DHT22;2605;49.770;9.868;2023-11-19T05:01:31;8.70;99.90
5172;DHT22;2605;49.770;9.868;2023-11-19T05:03:57;8.70;99.90
5172;DHT22;2605;49.770;9.868;2023-11-19T05:06:29;8.70;99.90
5172;DHT22;2605;49.770;9.868;2023-11-19T05:08:55;8.80;99.90
5172;DHT22;2605;49.770;9.868;2023-11-19T05:11:21;8.80;99.90
5172;DHT22;2605;49.770;9.868;2023-11-19T05:13:46;8.80;99.90
5172;DHT22;2605;49.770;9.868;2023-11-19T05:16:12;8.80;99.90
5172;DHT22;2605;49.770;9.868;2023-11-19T05:18:44;8.80;99.90
5172;DHT22;2605;49.770;9.868;2023-11-19T05:21:13;8.80;99.90
5172;DHT22;2605;49.770;9.868;2023-11-19T05:23:39;8.80;99.90
5172;DHT22;2605;49.770;9.868;2023-11-19T05:26:05;8.90;99.90
5172;DHT22;2605;49.770;9.868;2023-11-19T05:28:30;8.90;99.90
5172;DHT22;2605;49.770;9.868;2023-11-19T05:30:57;8.90;99.90
5172;DHT22;2605;49.770;9.868;2023-11-19T05:33:22;8.90;99.90
5172;DHT22;2605;49.770;9.868;2023-11-19T05:35:51;8.90;99.90
5172;DHT22;2605;49.770;9.868;2023-11-19T05:38:16;8.90;99.90
5172;DHT22;2605;49.770;9.868;2023-11-19T05:40:42;8.90;99.90
5172;DHT22;2605;49.770;9.868;2023-11-19T05:43:07;8.90;99.90
5172;DHT22;2605;49.770;9.868;2023-11-19T05:45:33;8.90;99.90
5172;DHT22;2605;49.770;9.868;2023-11-19T05:47:58;8.90;99.90
5172;DHT22;2605;49.770;9.868;2023-11-19T05:50:24;8.90;99.90
5172;DHT22;2605;49.770;9.868;2023-11-19T05:52:50;8.90;99.90
5172;DHT22;2605;49.770;9.868;2023-11-19T05:55:15;8.90;99.90
5172;DHT22;2605;49.770;9.868;2023-11-19T05:57:41;8.90;99.90
5172;DHT22;2605;49.770;9.868;2023-11-19T06:00:07;8.90;99.90
5172;DHT22;2605;49.770;9.868;2023-11-19T06:02:34;9.00;99.90
5172;DHT22;2605;49.770;9.868;2023-11-19T06:05:00;8.90;99.90
5172;DHT22;2605;49.770;9.868;2023-11-19T06:07:27;9.00;99.90
5172;DHT22;2605;49.770;9.868;2023-11-19T06:09:52;9.00;99.90
5172;DHT22;2605;49.770;9.868;2023-11-19T06:12:18;9.00;99.90
5172;DHT22;2605;49.770;9.868;2023-11-19T06:14:43;9.00;99.90
5172;DHT22;2605;49.770;9.868;2023-11-19T06:17:09;9.00;99.90
5172;DHT22;2605;49.770;9.868;2023-11-19T06:19:36;9.10;99.90
5172;DHT22;2605;49.770;9.868;2023-11-19T06:22:03;9.10;99.90
5172;DHT22;2605;49.770;9.868;2023-11-19T06:24:29;9.10;99.90
5172;DHT22;2605;49.770;9.868;2023-11-19T06:26:54;9.10;99.90
5172;DHT22;2605;49.770;9.868;2023-11-19T06:29:20;9.10;99.90
5172;DHT22;2605;49.770;9.868;2023-11-19T06:31:45;9.20;99.90
5172;DHT22;2605;49.770;9.868;2023-11-19T06:34:14;9.20;99.90
5172;DHT22;2605;49.770;9.868;2023-11-19T06:36:39;9.20;99.90
5172;DHT22;2605;49.770;9.868;2023-11-19T06:39:05;9.30;99.90
5172;DHT22;2605;49.770;9.868;2023-11-19T06:41:31;9.30;99.90
5172;DHT22;2605;49.770;9.868;2023-11-19T06:43:56;9.20;99.90
5172;DHT22;2605;49.770;9.868;2023-11-19T06:46:22;9.30;99.90
5172;DHT22;2605;49.770;9.868;2023-11-19T06:48:47;9.30;99.90
5172;DHT22;2605;49.770;9.868;2023-11-19T06:51:13;9.40;99.90
5172;DHT22;2605;49.770;9.868;2023-11-19T06:53:39;9.40;99.90
5172;DHT22;2605;49.770;9.868;2023-11-19T06:56:06;9.40;99.90
5172;DHT22;2605;49.770;9.868;2023-11-19T06:58:42;9.40;99.90
5172;DHT22;2605;49.770;9.868;2023-11-19T07:01:07;9.40;99.90
5172;DHT22;2605;49.770;9.868;2023-11-19T07:03:35;9.40;99.90
5172;DHT22;2605;49.770;9.868;2023-11-19T07:06:00;9.50;99.90
5172;DHT22;2605;49.770;9.868;2023-11-19T07:08:25;9.50;99.90
5172;DHT22;2605;49.770;9.868;2023-11-19T07:10:52;9.50;99.90
5172;DHT22;2605;49.770;9.868;2023-11-19T07:13:17;9.50;99.90
5172;DHT22;2605;49.770;9.868;2023-11-19T07:15:44;9.60;99.90
5172;DHT22;2605;49.770;9.868;2023-11-19T07:18:10;9.60;99.90
5172;DHT22;2605;49.770;9.868;2023-11-19T07:20:37;9.60;99.90
5172;DHT22;2605;49.770;9.868;2023-11-19T07:23:03;9.60;99.90
5172;DHT22;2605;49.770;9.868;2023-11-19T07:25:29;9.60;99.90
5172;DHT22;2605;49.770;9.868;2023-11-19T07:27:54;9.60;99.90
5172;DHT22;2605;49.770;9.868;2023-11-19T07:30:20;9.70;99.90
5172;DHT22;2605;49.770;9.868;2023-11-19T07:32:46;9.70;99.90
5172;DHT22;2605;49.770;9.868;2023-11-19T07:35:11;9.70;99.90
5172;DHT22;2605;49.770;9.868;2023-11-19T07:37:37;9.70;99.90
5172;DHT22;2605;49.770;9.868;2023-11-19T07:40:02;9.70;99.90
5172;DHT22;2605;49.770;9.868;2023-11-19T07:42:28;9.00;99.90
5172;DHT22;2605;49.770;9.868;2023-11-19T07:44:54;9.80;99.90
5172;DHT22;2605;49.770;9.868;2023-11-19T07:47:21;9.90;99.90
5172;DHT22;2605;49.770;9.868;2023-11-19T07:49:49;9.80;99.90
5172;DHT22;2605;49.770;9.868;2023-11-19T07:52:15;9.90;99.90
5172;DHT22;2605;49.770;9.868;2023-11-19T07:54:43;9.90;99.90
5172;DHT22;2605;49.770;9.868;2023-11-19T07:57:09;9.90;99.90
5172;DHT22;2605;49.770;9.868;2023-11-19T07:59:34;9.90;99.90
5172;DHT22;2605;49.770;9.868;2023-11-19T08:02:00;10.00;99.90
5172;DHT22;2605;49.770;9.868;2023-11-19T08:04:25;10.00;99.90
5172;DHT22;2605;49.770;9.868;2023-11-19T08:06:51;10.00;99.90
5172;DHT22;2605;49.770;9.868;2023-11-19T08:09:17;10.00;99.90
5172;DHT22;2605;49.770;9.868;2023-11-19T08:11:43;10.00;99.90
5172;DHT22;2605;49.770;9.868;2023-11-19T08:14:09;10.00;99.90
5172;DHT22;2605;49.770;9.868;2023-11-19T08:16:34;10.00;99.90
5172;DHT22;2605;49.770;9.868;2023-11-19T08:19:00;10.10;99.90
5172;DHT22;2605;49.770;9.868;2023-11-19T08:21:25;10.10;99.90
5172;DHT22;2605;49.770;9.868;2023-11-19T08:23:52;10.10;99.90
5172;DHT22;2605;49.770;9.868;2023-11-19T08:26:17;10.20;99.90
5172;DHT22;2605;49.770;9.868;2023-11-19T08:28:43;10.30;99.90
5172;DHT22;2605;49.770;9.868;2023-11-19T08:31:08;10.30;99.90
5172;DHT22;2605;49.770;9.868;2023-11-19T08:33:34;10.30;99.90
5172;DHT22;2605;49.770;9.868;2023-11-19T08:35:59;10.40;99.90
5172;DHT22;2605;49.770;9.868;2023-11-19T08:38:26;10.40;99.90
5172;DHT22;2605;49.770;9.868;2023-11-19T08:40:51;10.50;99.90
5172;DHT22;2605;49.770;9.868;2023-11-19T08:43:17;10.60;99.90
5172;DHT22;2605;49.770;9.868;2023-11-19T08:45:43;10.70;99.90
5172;DHT22;2605;49.770;9.868;2023-11-19T08:48:09;10.80;99.90
5172;DHT22;2605;49.770;9.868;2023-11-19T08:50:34;10.90;99.90
5172;DHT22;2605;49.770;9.868;2023-11-19T08:53:00;10.90;99.90
5172;DHT22;2605;49.770;9.868;2023-11-19T08:55:25;11.00;99.90
5172;DHT22;2605;49.770;9.868;2023-11-19T08:57:51;11.20;99.90
5172;DHT22;2605;49.770;9.868;2023-11-19T09:00:17;11.20;99.90
5172;DHT22;2605;49.770;9.868;2023-11-19T09:02:43;11.30;99.90
5172;DHT22;2605;49.770;9.868;2023-11-19T09:05:08;11.30;99.90
5172;DHT22;2605;49.770;9.868;2023-11-19T09:07:34;11.40;99.90
5172;DHT22;2605;49.770;9.868;2023-11-19T09:10:00;11.40;99.90
5172;DHT22;2605;49.770;9.868;2023-11-19T09:12:25;11.40;99.90
5172;DHT22;2605;49.770;9.868;2023-11-19T09:14:51;11.50;99.90
5172;DHT22;2605;49.770;9.868;2023-11-19T09:17:16;11.50;99.90
5172;DHT22;2605;49.770;9.868;2023-11-19T09:19:43;11.60;99.90
5172;DHT22;2605;49.770;9.868;2023-11-19T09:22:08;11.60;99.90
5172;DHT22;2605;49.770;9.868;2023-11-19T09:24:34;11.70;99.90
5172;DHT22;2605;49.770;9.868;2023-11-19T09:26:59;11.70;99.90
5172;DHT22;2605;49.770;9.868;2023-11-19T09:29:25;11.80;99.90
5172;DHT22;2605;49.770;9.868;2023-11-19T09:31:51;11.80;99.90
5172;DHT22;2605;49.770;9.868;2023-11-19T09:34:16;11.90;99.90
5172;DHT22;2605;49.770;9.868;2023-11-19T09:36:42;11.90;99.90
5172;DHT22;2605;49.770;9.868;2023-11-19T09:39:10;12.00;99.90
5172;DHT22;2605;49.770;9.868;2023-11-19T09:41:36;12.10;99.90
5172;DHT22;2605;49.770;9.868;2023-11-19T09:44:02;12.30;99.90
5172;DHT22;2605;49.770;9.868;2023-11-19T09:46:28;12.50;99.90
5172;DHT22;2605;49.770;9.868;2023-11-19T09:48:55;12.60;99.90
5172;DHT22;2605;49.770;9.868;2023-11-19T09:51:21;12.80;99.90
5172;DHT22;2605;49.770;9.868;2023-11-19T09:53:50;12.70;99.90
5172;DHT22;2605;49.770;9.868;2023-11-19T09:56:16;12.70;99.90
5172;DHT22;2605;49.770;9.868;2023-11-19T09:58:42;12.70;99.90
5172;DHT22;2605;49.770;9.868;2023-11-19T10:01:08;12.80;99.90
5172;DHT22;2605;49.770;9.868;2023-11-19T10:03:38;12.80;99.90
5172;DHT22;2605;49.770;9.868;2023-11-19T10:06:08;12.70;99.90
5172;DHT22;2605;49.770;9.868;2023-11-19T10:08:37;12.60;99.90
5172;DHT22;2605;49.770;9.868;2023-11-19T10:11:05;12.50;99.90
5172;DHT22;2605;49.770;9.868;2023-11-19T10:13:31;12.40;99.90
5172;DHT22;2605;49.770;9.868;2023-11-19T10:15:56;12.30;99.90
5172;DHT22;2605;49.770;9.868;2023-11-19T10:18:26;12.20;99.90
5172;DHT22;2605;49.770;9.868;2023-11-19T10:20:51;12.00;99.90
5172;DHT22;2605;49.770;9.868;2023-11-19T10:23:20;11.80;99.90
5172;DHT22;2605;49.770;9.868;2023-11-19T10:25:46;11.60;99.90
5172;DHT22;2605;49.770;9.868;2023-11-19T10:28:11;11.40;99.90
5172;DHT22;2605;49.770;9.868;2023-11-19T10:30:41;11.40;99.90
5172;DHT22;2605;49.770;9.868;2023-11-19T10:33:12;11.40;99.90
5172;DHT22;2605;49.770;9.868;2023-11-19T10:35:58;11.20;99.90
5172;DHT22;2605;49.770;9.868;2023-11-19T10:38:24;11.20;99.90
5172;DHT22;2605;49.770;9.868;2023-11-19T10:40:51;11.30;99.90
5172;DHT22;2605;49.770;9.868;2023-11-19T10:43:17;11.40;99.90
5172;DHT22;2605;49.770;9.868;2023-11-19T10:45:43;11.50;99.90
5172;DHT22;2605;49.770;9.868;2023-11-19T10:48:09;11.50;99.90
5172;DHT22;2605;49.770;9.868;2023-11-19T10:50:42;11.50;99.90
5172;DHT22;2605;49.770;9.868;2023-11-19T10:53:11;11.50;99.90
5172;DHT22;2605;49.770;9.868;2023-11-19T10:55:47;11.50;99.90
5172;DHT22;2605;49.770;9.868;2023-11-19T10:58:15;11.50;99.90
5172;DHT22;2605;49.770;9.868;2023-11-19T11:00:47;11.50;99.90
5172;DHT22;2605;49.770;9.868;2023-11-19T11:03:20;11.60;99.90
5172;DHT22;2605;49.770;9.868;2023-11-19T11:05:47;11.60;99.90
5172;DHT22;2605;49.770;9.868;2023-11-19T11:08:13;11.60;99.90
5172;DHT22;2605;49.770;9.868;2023-11-19T11:10:48;11.60;99.90
5172;DHT22;2605;49.770;9.868;2023-11-19T11:13:18;11.60;99.90
5172;DHT22;2605;49.770;9.868;2023-11-19T11:15:45;11.70;99.90
5172;DHT22;2605;49.770;9.868;2023-11-19T11:18:12;11.60;99.90
5172;DHT22;2605;49.770;9.868;2023-11-19T11:20:39;11.50;99.90
5172;DHT22;2605;49.770;9.868;2023-11-19T11:23:37;11.40;99.90
5172;DHT22;2605;49.770;9.868;2023-11-19T11:26:29;11.40;99.90
5172;DHT22;2605;49.770;9.868;2023-11-19T11:31:48;11.60;99.90
5172;DHT22;2605;49.770;9.868;2023-11-19T11:34:58;11.70;99.90
5172;DHT22;2605;49.770;9.868;2023-11-19T11:37:35;11.80;99.90
5172;DHT22;2605;49.770;9.868;2023-11-19T11:40:03;11.90;99.90
5172;DHT22;2605;49.770;9.868;2023-11-19T11:42:36;11.90;99.90
5172;DHT22;2605;49.770;9.868;2023-11-19T11:45:10;11.90;99.90
5172;DHT22;2605;49.770;9.868;2023-11-19T11:48:08;12.00;99.90
5172;DHT22;2605;49.770;9.868;2023-11-19T11:50:35;12.00;99.90
5172;DHT22;2605;49.770;9.868;2023-11-19T11:58:00;12.10;99.90
5172;DHT22;2605;49.770;9.868;2023-11-19T12:02:56;12.30;99.90
5172;DHT22;2605;49.770;9.868;2023-11-19T12:05:21;12.30;99.90
5172;DHT22;2605;49.770;9.868;2023-11-19T12:08:01;12.40;99.90
5172;DHT22;2605;49.770;9.868;2023-11-19T12:10:47;12.50;99.90
5172;DHT22;2605;49.770;9.868;2023-11-19T12:13:14;12.70;99.90
5172;DHT22;2605;49.770;9.868;2023-11-19T12:18:25;12.80;99.90
5172;DHT22;2605;49.770;9.868;2023-11-19T12:20:51;12.80;99.90
5172;DHT22;2605;49.770;9.868;2023-11-19T12:23:17;12.80;99.90
5172;DHT22;2605;49.770;9.868;2023-11-19T12:25:43;13.00;99.90
5172;DHT22;2605;49.770;9.868;2023-11-19T12:28:16;12.80;99.90
5172;DHT22;2605;49.770;9.868;2023-11-19T12:30:43;12.70;99.90
5172;DHT22;2605;49.770;9.868;2023-11-19T12:33:09;12.80;99.90
5172;DHT22;2605;49.770;9.868;2023-11-19T12:35:45;12.80;99.90
5172;DHT22;2605;49.770;9.868;2023-11-19T12:38:25;12.90;99.90
5172;DHT22;2605;49.770;9.868;2023-11-19T12:41:07;13.00;99.90
5172;DHT22;2605;49.770;9.868;2023-11-19T12:43:36;12.90;99.90
5172;DHT22;2605;49.770;9.868;2023-11-19T12:46:03;12.90;99.90
5172;DHT22;2605;49.770;9.868;2023-11-19T12:48:29;12.80;99.90
5172;DHT22;2605;49.770;9.868;2023-11-19T12:50:58;12.70;99.90
5172;DHT22;2605;49.770;9.868;2023-11-19T12:53:26;12.80;99.90
5172;DHT22;2605;49.770;9.868;2023-11-19T12:55:52;12.80;99.90
5172;DHT22;2605;49.770;9.868;2023-11-19T12:58:31;12.80;99.90
5172;DHT22;2605;49.770;9.868;2023-11-19T13:01:05;12.90;99.90
5172;DHT22;2605;49.770;9.868;2023-11-19T13:03:32;12.90;99.90
5172;DHT22;2605;49.770;9.868;2023-11-19T13:08:37;13.00;99.90
5172;DHT22;2605;49.770;9.868;2023-11-19T13:11:03;13.00;99.90
5172;DHT22;2605;49.770;9.868;2023-11-19T13:13:29;13.00;99.90
5172;DHT22;2605;49.770;9.868;2023-11-19T13:16:02;12.90;99.90
5172;DHT22;2605;49.770;9.868;2023-11-19T13:18:28;12.90;99.90
5172;DHT22;2605;49.770;9.868;2023-11-19T13:20:54;12.90;99.90
5172;DHT22;2605;49.770;9.868;2023-11-19T13:23:22;12.90;99.90
5172;DHT22;2605;49.770;9.868;2023-11-19T13:25:48;12.90;99.90
5172;DHT22;2605;49.770;9.868;2023-11-19T13:28:14;13.00;99.90
5172;DHT22;2605;49.770;9.868;2023-11-19T13:30:39;13.00;99.90
5172;DHT22;2605;49.770;9.868;2023-11-19T13:33:05;13.00;99.90
5172;DHT22;2605;49.770;9.868;2023-11-19T13:35:30;12.90;99.90
5172;DHT22;2605;49.770;9.868;2023-11-19T13:37:56;12.90;99.90
5172;DHT22;2605;49.770;9.868;2023-11-19T13:40:21;12.90;99.90
5172;DHT22;2605;49.770;9.868;2023-11-19T13:42:49;12.90;99.90
5172;DHT22;2605;49.770;9.868;2023-11-19T13:45:15;12.80;99.90
5172;DHT22;2605;49.770;9.868;2023-11-19T13:47:42;12.80;99.90
5172;DHT22;2605;49.770;9.868;2023-11-19T13:50:14;12.80;99.90
5172;DHT22;2605;49.770;9.868;2023-11-19T13:52:42;12.80;99.90
5172;DHT22;2605;49.770;9.868;2023-11-19T13:55:09;12.80;99.90
5172;DHT22;2605;49.770;9.868;2023-11-19T13:57:35;12.80;99.90
5172;DHT22;2605;49.770;9.868;2023-11-19T14:00:06;12.70;99.90
5172;DHT22;2605;49.770;9.868;2023-11-19T14:02:33;12.70;99.90
5172;DHT22;2605;49.770;9.868;2023-11-19T14:04:59;12.70;99.90
5172;DHT22;2605;49.770;9.868;2023-11-19T14:07:25;12.60;99.90
5172;DHT22;2605;49.770;9.868;2023-11-19T14:09:51;12.60;99.90
5172;DHT22;2605;49.770;9.868;2023-11-19T14:12:17;12.50;99.90
5172;DHT22;2605;49.770;9.868;2023-11-19T14:14:43;12.50;99.90
5172;DHT22;2605;49.770;9.868;2023-11-19T14:17:09;12.70;99.90
5172;DHT22;2605;49.770;9.868;2023-11-19T14:19:36;13.10;99.90
5172;DHT22;2605;49.770;9.868;2023-11-19T14:22:02;14.20;99.90
5172;DHT22;2605;49.770;9.868;2023-11-19T14:24:27;15.00;99.90
5172;DHT22;2605;49.770;9.868;2023-11-19T14:26:53;15.20;99.90
5172;DHT22;2605;49.770;9.868;2023-11-19T14:29:19;15.50;99.90
5172;DHT22;2605;49.770;9.868;2023-11-19T14:31:44;15.40;99.90
5172;DHT22;2605;49.770;9.868;2023-11-19T14:34:09;15.10;99.90
5172;DHT22;2605;49.770;9.868;2023-11-19T14:36:35;15.10;99.90
5172;DHT22;2605;49.770;9.868;2023-11-19T14:39:01;14.90;99.90
5172;DHT22;2605;49.770;9.868;2023-11-19T14:41:26;14.70;99.90
5172;DHT22;2605;49.770;9.868;2023-11-19T14:43:52;15.00;99.90
5172;DHT22;2605;49.770;9.868;2023-11-19T14:46:18;15.20;99.90
5172;DHT22;2605;49.770;9.868;2023-11-19T14:48:43;15.20;99.90
5172;DHT22;2605;49.770;9.868;2023-11-19T14:51:09;14.70;99.90
5172;DHT22;2605;49.770;9.868;2023-11-19T14:53:34;15.00;99.90
5172;DHT22;2605;49.770;9.868;2023-11-19T14:56:00;14.60;99.90
5172;DHT22;2605;49.770;9.868;2023-11-19T14:58:26;14.50;99.90
5172;DHT22;2605;49.770;9.868;2023-11-19T15:00:52;14.30;99.90
5172;DHT22;2605;49.770;9.868;2023-11-19T15:03:17;13.60;99.90
5172;DHT22;2605;49.770;9.868;2023-11-19T15:05:45;13.40;99.90
5172;DHT22;2605;49.770;9.868;2023-11-19T15:08:11;12.90;99.90
5172;DHT22;2605;49.770;9.868;2023-11-19T15:10:37;12.70;99.90
5172;DHT22;2605;49.770;9.868;2023-11-19T15:13:03;12.50;99.90
5172;DHT22;2605;49.770;9.868;2023-11-19T15:15:29;12.30;99.90
5172;DHT22;2605;49.770;9.868;2023-11-19T15:17:54;12.20;99.90
5172;DHT22;2605;49.770;9.868;2023-11-19T15:20:20;12.10;99.90
5172;DHT22;2605;49.770;9.868;2023-11-19T15:22:46;12.00;99.90
5172;DHT22;2605;49.770;9.868;2023-11-19T15:25:12;11.90;99.90
5172;DHT22;2605;49.770;9.868;2023-11-19T15:27:38;11.90;99.90
5172;DHT22;2605;49.770;9.868;2023-11-19T15:30:04;11.80;99.90
5172;DHT22;2605;49.770;9.868;2023-11-19T15:32:30;11.70;99.90
5172;DHT22;2605;49.770;9.868;2023-11-19T15:35:00;11.70;99.90
5172;DHT22;2605;49.770;9.868;2023-11-19T15:37:25;11.60;99.90
5172;DHT22;2605;49.770;9.868;2023-11-19T15:39:51;11.60;99.90
5172;DHT22;2605;49.770;9.868;2023-11-19T15:42:17;11.50;99.90
5172;DHT22;2605;49.770;9.868;2023-11-19T15:44:42;11.50;99.90
5172;DHT22;2605;49.770;9.868;2023-11-19T15:47:09;11.50;99.90
5172;DHT22;2605;49.770;9.868;2023-11-19T15:49:35;11.60;99.90
5172;DHT22;2605;49.770;9.868;2023-11-19T15:52:02;11.60;99.90
5172;DHT22;2605;49.770;9.868;2023-11-19T15:54:27;11.50;99.90
5172;DHT22;2605;49.770;9.868;2023-11-19T15:56:53;11.50;99.90
5172;DHT22;2605;49.770;9.868;2023-11-19T15:59:18;11.50;99.90
5172;DHT22;2605;49.770;9.868;2023-11-19T16:01:46;11.60;99.90
5172;DHT22;2605;49.770;9.868;2023-11-19T16:04:11;11.60;99.90
5172;DHT22;2605;49.770;9.868;2023-11-19T16:06:37;11.60;99.90
5172;DHT22;2605;49.770;9.868;2023-11-19T16:09:02;11.50;99.90
5172;DHT22;2605;49.770;9.868;2023-11-19T16:11:28;11.50;99.90
5172;DHT22;2605;49.770;9.868;2023-11-19T16:13:54;11.40;99.90
5172;DHT22;2605;49.770;9.868;2023-11-19T16:16:19;11.40;99.90
5172;DHT22;2605;49.770;9.868;2023-11-19T16:18:45;11.30;99.90
5172;DHT22;2605;49.770;9.868;2023-11-19T16:21:10;11.40;99.90
5172;DHT22;2605;49.770;9.868;2023-11-19T16:23:36;11.40;99.90
5172;DHT22;2605;49.770;9.868;2023-11-19T16:26:01;11.30;99.90